createdAt,value
2018-11-10T00:00:15.117Z,0.2
2018-11-10T00:01:15.149Z,0.2
2018-11-10T00:02:15.105Z,0.1
2018-11-10T00:03:15.099Z,0.1
2018-11-10T00:04:15.158Z,0.1
2018-11-10T00:05:15.162Z,0.1
2018-11-10T00:06:15.120Z,0.1
2018-11-10T00:07:15.129Z,0.1
2018-11-10T00:08:15.120Z,0.1
2018-11-10T00:09:15.140Z,0.1
2018-11-10T00:10:15.104Z,0.4
2018-11-10T00:11:15.100Z,0.7
2018-11-10T00:12:15.124Z,1.2
2018-11-10T00:13:15.162Z,1.7
2018-11-10T00:14:15.091Z,2.3
2018-11-10T00:15:15.129Z,2.7
2018-11-10T00:16:15.107Z,3
2018-11-10T00:17:15.152Z,3.2
2018-11-10T00:18:15.109Z,3.1
2018-11-10T00:19:15.275Z,2.9
2018-11-10T00:20:15.096Z,2.8
2018-11-10T00:21:15.105Z,2.5
2018-11-10T00:22:15.150Z,2.3
2018-11-10T00:23:15.102Z,2.1
2018-11-10T00:24:15.103Z,1.9
2018-11-10T00:25:15.081Z,1.7
2018-11-10T00:26:15.147Z,1.5
2018-11-10T00:27:15.090Z,1.4
2018-11-10T00:28:15.072Z,1.3
2018-11-10T00:29:15.098Z,1.1
2018-11-10T00:30:15.105Z,1
2018-11-10T00:31:15.143Z,0.9
2018-11-10T00:32:15.084Z,0.8
2018-11-10T00:33:15.111Z,0.9
2018-11-10T00:34:15.092Z,1
2018-11-10T00:35:15.104Z,0.9
2018-11-10T00:36:15.153Z,0.8
2018-11-10T00:37:15.098Z,0.7
2018-11-10T00:38:15.097Z,0.6
2018-11-10T00:39:15.093Z,0.6
2018-11-10T00:40:15.132Z,0.5
2018-11-10T00:41:15.079Z,0.5
2018-11-10T00:42:15.067Z,0.4
2018-11-10T00:43:15.136Z,0.4
2018-11-10T00:44:15.081Z,0.4
2018-11-10T00:45:15.087Z,0.3
2018-11-10T00:46:15.087Z,0.5
2018-11-10T00:47:15.134Z,1.1
2018-11-10T00:48:15.084Z,1.5
2018-11-10T00:49:15.074Z,1.6
2018-11-10T00:50:15.070Z,1.4
2018-11-10T00:51:15.107Z,1.3
2018-11-10T00:52:15.137Z,1.2
2018-11-10T00:53:15.092Z,1.1
2018-11-10T00:54:15.091Z,1.1
2018-11-10T00:55:15.076Z,1.1
2018-11-10T00:56:15.081Z,1
2018-11-10T00:57:15.131Z,0.9
2018-11-10T00:58:15.082Z,0.8
2018-11-10T00:59:15.073Z,0.8
2018-11-10T01:00:15.074Z,0.7
2018-11-10T01:01:15.060Z,0.6
2018-11-10T01:02:15.138Z,0.6
2018-11-10T01:03:15.058Z,0.5
2018-11-10T01:04:15.067Z,0.5
2018-11-10T01:05:15.054Z,0.4
2018-11-10T01:06:15.123Z,0.4
2018-11-10T01:07:15.135Z,0.3
2018-11-10T01:08:15.075Z,0.3
2018-11-10T01:09:15.098Z,0.3
2018-11-10T01:10:15.069Z,0.3
2018-11-10T01:11:15.056Z,0.2
2018-11-10T01:12:15.053Z,0.2
2018-11-10T01:13:15.062Z,0.2
2018-11-10T01:14:15.050Z,0.2
2018-11-10T01:15:15.055Z,0.2
2018-11-10T01:16:15.122Z,0.1
2018-11-10T01:17:15.123Z,0.1
2018-11-10T01:18:15.044Z,0.1
2018-11-10T01:19:15.073Z,0.1
2018-11-10T01:20:15.129Z,0.1
2018-11-10T01:21:15.111Z,0.1
2018-11-10T01:22:15.048Z,0.1
2018-11-10T01:23:15.051Z,0.1
2018-11-10T01:24:15.058Z,0.1
2018-11-10T01:25:15.095Z,0.1
2018-11-10T01:26:15.060Z,0.1
2018-11-10T01:27:15.048Z,0
2018-11-10T01:28:15.064Z,0
2018-11-10T01:29:15.108Z,0
2018-11-10T01:30:15.059Z,0
2018-11-10T01:31:15.088Z,0
2018-11-10T01:32:15.103Z,0
2018-11-10T01:33:15.055Z,0
2018-11-10T01:34:15.054Z,0
2018-11-10T01:35:15.074Z,0
2018-11-10T01:36:15.029Z,0
2018-11-10T01:37:15.104Z,0
2018-11-10T01:38:15.093Z,0
2018-11-10T01:39:15.119Z,0
2018-11-10T01:40:15.060Z,0
2018-11-10T01:41:15.025Z,0
2018-11-10T01:42:15.048Z,0
2018-11-10T01:43:15.053Z,0
2018-11-10T01:44:15.090Z,0
2018-11-10T01:45:15.066Z,0
2018-11-10T01:46:16.872Z,0
2018-11-10T01:47:15.044Z,0
2018-11-10T01:48:15.032Z,0
2018-11-10T01:49:15.029Z,0
2018-11-10T01:50:15.111Z,0
2018-11-10T01:51:15.032Z,0
2018-11-10T01:52:15.085Z,0
2018-11-10T01:53:15.043Z,0
2018-11-10T01:54:15.108Z,0
2018-11-10T01:55:15.029Z,0
2018-11-10T01:56:15.054Z,0
2018-11-10T01:57:15.052Z,0
2018-11-10T01:58:15.041Z,0.2
2018-11-10T01:59:15.095Z,0.3
2018-11-10T02:00:15.025Z,0.5
2018-11-10T02:01:15.039Z,0.6
2018-11-10T02:02:15.076Z,0.7
2018-11-10T02:03:15.085Z,0.8
2018-11-10T02:04:15.039Z,0.8
2018-11-10T02:05:15.039Z,0.9
2018-11-10T02:06:15.033Z,1
2018-11-10T02:07:15.036Z,0.9
2018-11-10T02:08:15.070Z,0.9
2018-11-10T02:09:15.025Z,0.9
2018-11-10T02:10:15.051Z,1
2018-11-10T02:11:15.044Z,1.1
2018-11-10T02:12:15.097Z,1
2018-11-10T02:13:15.048Z,0.9
2018-11-10T02:14:14.998Z,0.8
2018-11-10T02:15:15.012Z,0.7
2018-11-10T02:16:15.088Z,0.8
2018-11-10T02:17:15.014Z,1.3
2018-11-10T02:18:15.028Z,1.9
2018-11-10T02:19:15.026Z,2.4
2018-11-10T02:20:15.078Z,2.8
2018-11-10T02:21:15.031Z,2.9
2018-11-10T02:22:15.035Z,3.1
2018-11-10T02:23:15.028Z,3.1
2018-11-10T02:24:15.011Z,2.9
2018-11-10T02:25:15.048Z,2.7
2018-11-10T02:26:15.091Z,2.4
2018-11-10T02:27:15.029Z,2.2
2018-11-10T02:28:15.042Z,2
2018-11-10T02:29:15.030Z,1.8
2018-11-10T02:30:15.084Z,1.6
2018-11-10T02:31:15.061Z,1.5
2018-11-10T02:32:15.047Z,1.3
2018-11-10T02:33:15.083Z,1.2
2018-11-10T02:34:15.034Z,1.1
2018-11-10T02:35:15.084Z,1
2018-11-10T02:36:15.001Z,0.9
2018-11-10T02:37:15.012Z,0.8
2018-11-10T02:38:15.071Z,0.7
2018-11-10T02:39:15.013Z,0.7
2018-11-10T02:40:15.072Z,0.6
2018-11-10T02:41:15.019Z,0.5
2018-11-10T02:42:15.025Z,0.5
2018-11-10T02:43:15.024Z,0.9
2018-11-10T02:44:15.018Z,1.3
2018-11-10T02:45:15.089Z,1.8
2018-11-10T02:46:15.031Z,2.1
2018-11-10T02:47:15.074Z,2.3
2018-11-10T02:48:15.091Z,2.3
2018-11-10T02:49:15.001Z,2.1
2018-11-10T02:50:15.074Z,1.9
2018-11-10T02:51:15.027Z,1.7
2018-11-10T02:52:15.038Z,1.5
2018-11-10T02:53:15.009Z,1.4
2018-11-10T02:54:15.010Z,1.2
2018-11-10T02:55:15.009Z,1.1
2018-11-10T02:56:15.052Z,1
2018-11-10T02:57:15.007Z,0.9
2018-11-10T02:58:15.028Z,0.8
2018-11-10T02:59:15.015Z,0.8
2018-11-10T03:00:15.020Z,0.7
2018-11-10T03:01:15.012Z,0.6
2018-11-10T03:02:15.027Z,0.6
2018-11-10T03:03:15.038Z,0.5
2018-11-10T03:04:15.021Z,0.5
2018-11-10T03:05:14.992Z,0.4
2018-11-10T03:06:15.003Z,0.4
2018-11-10T03:07:14.993Z,0.3
2018-11-10T03:08:15.045Z,0.3
2018-11-10T03:09:15.009Z,0.6
2018-11-10T03:10:15.007Z,1.1
2018-11-10T03:11:14.995Z,1.6
2018-11-10T03:12:14.981Z,1.9
2018-11-10T03:13:15.054Z,2.1
2018-11-10T03:14:14.972Z,1.9
2018-11-10T03:15:14.997Z,1.9
2018-11-10T03:16:15.527Z,1.7
2018-11-10T03:17:14.993Z,1.6
2018-11-10T03:18:15.033Z,1.4
2018-11-10T03:19:15.063Z,1.3
2018-11-10T03:20:14.971Z,1.2
2018-11-10T03:21:15.056Z,1.1
2018-11-10T03:22:15.016Z,1
2018-11-10T03:23:15.007Z,0.9
2018-11-10T03:24:15.054Z,0.8
2018-11-10T03:25:14.980Z,0.7
2018-11-10T03:26:15.077Z,0.6
2018-11-10T03:27:15.008Z,0.6
2018-11-10T03:28:15.016Z,0.5
2018-11-10T03:29:15.074Z,0.5
2018-11-10T03:30:14.981Z,0.4
2018-11-10T03:31:15.065Z,0.4
2018-11-10T03:32:14.976Z,0.4
2018-11-10T03:33:15.058Z,0.3
2018-11-10T03:34:14.998Z,0.5
2018-11-10T03:35:18.938Z,0.8
2018-11-10T03:36:14.989Z,1.3
2018-11-10T03:37:15.038Z,2.1
2018-11-10T03:38:14.995Z,2.4
2018-11-10T03:39:14.986Z,2.6
2018-11-10T03:40:15.028Z,2.7
2018-11-10T03:41:14.984Z,2.4
2018-11-10T03:42:15.061Z,2.2
2018-11-10T03:43:14.992Z,2
2018-11-10T03:44:15.045Z,1.8
2018-11-10T03:45:14.970Z,1.6
2018-11-10T03:46:14.950Z,1.5
2018-11-10T03:47:14.981Z,1.3
2018-11-10T03:48:15.014Z,1.2
2018-11-10T03:49:14.945Z,1.1
2018-11-10T03:50:15.000Z,1
2018-11-10T03:51:15.015Z,0.9
2018-11-10T03:52:14.978Z,0.8
2018-11-10T03:53:15.027Z,0.7
2018-11-10T03:54:14.972Z,0.7
2018-11-10T03:55:14.952Z,0.6
2018-11-10T03:56:14.966Z,0.5
2018-11-10T03:57:14.999Z,0.7
2018-11-10T03:58:14.990Z,1.3
2018-11-10T03:59:15.031Z,2
2018-11-10T04:00:15.025Z,2.7
2018-11-10T04:01:14.952Z,3
2018-11-10T04:02:15.013Z,2.9
2018-11-10T04:03:14.965Z,2.8
2018-11-10T04:04:14.935Z,2.6
2018-11-10T04:05:14.963Z,2.3
2018-11-10T04:06:14.961Z,2.1
2018-11-10T04:07:15.007Z,1.9
2018-11-10T04:08:15.032Z,1.7
2018-11-10T04:09:14.962Z,1.6
2018-11-10T04:10:14.944Z,1.4
2018-11-10T04:11:14.955Z,1.3
2018-11-10T04:12:15.019Z,1.2
2018-11-10T04:13:14.941Z,1
2018-11-10T04:14:14.965Z,1
2018-11-10T04:15:14.987Z,1.1
2018-11-10T04:16:14.939Z,1.2
2018-11-10T04:17:15.042Z,1.1
2018-11-10T04:18:14.959Z,1
2018-11-10T04:19:15.189Z,0.9
2018-11-10T04:20:14.950Z,0.8
2018-11-10T04:21:14.958Z,0.7
2018-11-10T04:22:14.964Z,0.7
2018-11-10T04:23:15.015Z,0.6
2018-11-10T04:24:14.964Z,0.5
2018-11-10T04:25:14.933Z,0.5
2018-11-10T04:26:14.943Z,0.4
2018-11-10T04:27:14.942Z,0.4
2018-11-10T04:28:14.994Z,0.4
2018-11-10T04:29:14.943Z,0.3
2018-11-10T04:30:14.938Z,0.3
2018-11-10T04:31:15.017Z,0.3
2018-11-10T04:32:14.960Z,0.2
2018-11-10T04:33:14.990Z,0.2
2018-11-10T04:34:14.962Z,0.2
2018-11-10T04:35:14.964Z,0.2
2018-11-10T04:36:14.922Z,0.2
2018-11-10T04:37:14.976Z,0.1
2018-11-10T04:38:14.947Z,0.1
2018-11-10T04:39:14.955Z,0.1
2018-11-10T04:40:14.941Z,0.1
2018-11-10T04:41:14.976Z,0.1
2018-11-10T04:42:14.957Z,0.1
2018-11-10T04:43:14.938Z,0.1
2018-11-10T04:44:14.934Z,0.1
2018-11-10T04:45:15.017Z,0.1
2018-11-10T04:46:14.929Z,0.1
2018-11-10T04:47:14.959Z,0.1
2018-11-10T04:48:15.025Z,0
2018-11-10T04:49:14.945Z,0
2018-11-10T04:50:14.983Z,0
2018-11-10T04:51:14.955Z,0
2018-11-10T04:52:14.935Z,0
2018-11-10T04:53:14.985Z,0
2018-11-10T04:54:14.924Z,0
2018-11-10T04:55:14.928Z,0
2018-11-10T04:56:14.986Z,0
2018-11-10T04:57:14.928Z,0.4
2018-11-10T04:58:14.941Z,1
2018-11-10T04:59:14.923Z,2
2018-11-10T05:00:14.940Z,3
2018-11-10T05:01:15.004Z,4.1
2018-11-10T05:02:14.932Z,4.9
2018-11-10T05:03:14.990Z,5
2018-11-10T05:04:14.950Z,4.6
2018-11-10T05:05:14.938Z,4.2
2018-11-10T05:06:14.932Z,3.8
2018-11-10T05:07:14.948Z,3.4
2018-11-10T05:08:14.981Z,3.1
2018-11-10T05:09:14.906Z,2.9
2018-11-10T05:10:14.904Z,3.2
2018-11-10T05:11:14.935Z,3.6
2018-11-10T05:12:14.933Z,3.7
2018-11-10T05:13:14.970Z,3.4
2018-11-10T05:14:14.925Z,3.2
2018-11-10T05:15:14.994Z,2.9
2018-11-10T05:16:14.923Z,2.7
2018-11-10T05:17:14.974Z,2.4
2018-11-10T05:18:14.920Z,2.2
2018-11-10T05:19:14.932Z,2
2018-11-10T05:20:14.904Z,1.8
2018-11-10T05:21:14.945Z,1.6
2018-11-10T05:22:14.978Z,1.5
2018-11-10T05:23:14.914Z,1.9
2018-11-10T05:24:14.923Z,2.2
2018-11-10T05:25:14.968Z,2.3
2018-11-10T05:26:14.989Z,2.1
2018-11-10T05:27:14.924Z,1.9
2018-11-10T05:28:14.937Z,1.7
2018-11-10T05:29:14.922Z,1.5
2018-11-10T05:30:14.911Z,1.4
2018-11-10T05:31:15.037Z,1.2
2018-11-10T05:32:14.927Z,1.1
2018-11-10T05:33:14.926Z,1.1
2018-11-10T05:34:14.914Z,1.5
2018-11-10T05:35:16.403Z,2
2018-11-10T05:36:14.971Z,2.3
2018-11-10T05:37:14.897Z,2.2
2018-11-10T05:38:14.925Z,2
2018-11-10T05:39:14.912Z,1.8
2018-11-10T05:40:14.921Z,1.6
2018-11-10T05:41:14.978Z,1.5
2018-11-10T05:42:14.902Z,1.3
2018-11-10T05:43:14.932Z,1.2
2018-11-10T05:44:14.922Z,1.1
2018-11-10T05:45:14.914Z,1
2018-11-10T05:46:14.971Z,0.9
2018-11-10T05:47:14.907Z,0.8
2018-11-10T05:48:14.951Z,0.7
2018-11-10T05:49:14.902Z,0.7
2018-11-10T05:50:14.913Z,0.6
2018-11-10T05:51:14.889Z,0.5
2018-11-10T05:52:14.960Z,0.5
2018-11-10T05:53:14.908Z,0.4
2018-11-10T05:54:14.922Z,0.4
2018-11-10T05:55:14.882Z,0.4
2018-11-10T05:56:14.964Z,0.3
2018-11-10T05:57:15.031Z,0.3
2018-11-10T05:58:14.984Z,0.3
2018-11-10T05:59:14.939Z,0.2
2018-11-10T06:00:14.897Z,0.2
2018-11-10T06:01:14.965Z,0.2
2018-11-10T06:02:14.900Z,0.2
2018-11-10T06:03:15.523Z,0.2
2018-11-10T06:04:14.905Z,0.1
2018-11-10T06:05:14.954Z,0.1
2018-11-10T06:06:14.913Z,0.1
2018-11-10T06:07:14.907Z,0.1
2018-11-10T06:08:14.907Z,0.1
2018-11-10T06:09:14.946Z,0.1
2018-11-10T06:10:15.072Z,0.1
2018-11-10T06:11:14.900Z,0.3
2018-11-10T06:12:14.888Z,0.6
2018-11-10T06:13:14.962Z,0.9
2018-11-10T06:14:14.909Z,1.3
2018-11-10T06:15:14.916Z,1.5
2018-11-10T06:16:14.936Z,1.8
2018-11-10T06:17:14.938Z,2.3
2018-11-10T06:18:14.904Z,2.6
2018-11-10T06:19:14.885Z,3
2018-11-10T06:20:14.899Z,3.5
2018-11-10T06:21:14.954Z,4.1
2018-11-10T06:22:14.884Z,4.5
2018-11-10T06:23:14.893Z,5
2018-11-10T06:24:16.762Z,5.7
2018-11-10T06:25:14.914Z,6.6
2018-11-10T06:26:15.012Z,7.3
2018-11-10T06:27:14.932Z,8.3
2018-11-10T06:28:14.889Z,9.2
2018-11-10T06:29:14.897Z,9.8
2018-11-10T06:30:14.903Z,10.2
2018-11-10T06:31:14.916Z,10.9
2018-11-10T06:32:14.920Z,11.5
2018-11-10T06:33:14.883Z,11.4
2018-11-10T06:34:14.890Z,10.9
2018-11-10T06:35:14.915Z,10.6
2018-11-10T06:36:14.887Z,10.9
2018-11-10T06:37:14.872Z,11.1
2018-11-10T06:38:14.922Z,11.1
2018-11-10T06:39:14.892Z,11.1
2018-11-10T06:40:15.035Z,11.3
2018-11-10T06:41:14.922Z,11.8
2018-11-10T06:42:14.884Z,12
2018-11-10T06:43:14.890Z,11.8
2018-11-10T06:44:14.890Z,11.2
2018-11-10T06:45:14.933Z,10.7
2018-11-10T06:46:16.286Z,9.9
2018-11-10T06:47:14.964Z,9.2
2018-11-10T06:48:14.866Z,8.5
2018-11-10T06:49:14.963Z,7.8
2018-11-10T06:50:14.849Z,7.4
2018-11-10T06:51:14.936Z,6.7
2018-11-10T06:52:14.899Z,6.1
2018-11-10T06:53:14.851Z,5.5
2018-11-10T06:54:14.936Z,5
2018-11-10T06:55:14.896Z,4.7
2018-11-10T06:56:16.819Z,5.2
2018-11-10T06:57:16.559Z,7
2018-11-10T06:58:16.463Z,8.6
2018-11-10T06:59:16.284Z,9.6
2018-11-10T07:00:17.854Z,10
2018-11-10T07:01:15.315Z,9.3
2018-11-10T07:02:15.258Z,8.5
2018-11-10T07:03:15.952Z,7.7
2018-11-10T07:04:15.227Z,6.9
2018-11-10T07:05:16.827Z,6.3
2018-11-10T07:06:15.230Z,5.7
2018-11-10T07:07:18.049Z,5.1
2018-11-10T07:08:16.346Z,4.6
2018-11-10T07:09:15.127Z,4.2
2018-11-10T07:10:14.982Z,3.8
2018-11-10T07:11:15.156Z,3.5
2018-11-10T07:12:15.602Z,3.1
2018-11-10T07:13:15.734Z,2.8
2018-11-10T07:14:15.365Z,2.6
2018-11-10T07:15:15.085Z,2.3
2018-11-10T07:16:15.305Z,2.1
2018-11-10T07:17:15.922Z,1.9
2018-11-10T07:18:16.183Z,1.7
2018-11-10T07:19:16.330Z,1.6
2018-11-10T07:20:15.483Z,1.4
2018-11-10T07:21:16.411Z,1.3
2018-11-10T07:22:15.732Z,1.2
2018-11-10T07:23:15.912Z,1
2018-11-10T07:24:16.105Z,0.9
2018-11-10T07:25:16.659Z,0.9
2018-11-10T07:26:15.084Z,0.8
2018-11-10T07:27:15.143Z,0.8
2018-11-10T07:28:17.533Z,0.8
2018-11-10T07:29:16.649Z,0.7
2018-11-10T07:30:22.377Z,0.6
2018-11-10T07:31:18.147Z,0.7
2018-11-10T07:32:19.112Z,0.6
2018-11-10T07:33:15.132Z,0.6
2018-11-10T07:34:15.878Z,0.6
2018-11-10T07:35:17.789Z,0.7
2018-11-10T07:36:15.785Z,0.6
2018-11-10T07:37:16.481Z,0.6
2018-11-10T07:38:15.892Z,0.5
2018-11-10T07:39:15.093Z,0.5
2018-11-10T07:40:15.209Z,0.4
2018-11-10T07:41:15.868Z,0.4
2018-11-10T07:42:15.407Z,0.4
2018-11-10T07:43:17.977Z,0.3
2018-11-10T07:44:16.019Z,0.7
2018-11-10T07:45:15.736Z,1.6
2018-11-10T07:46:15.684Z,2.6
2018-11-10T07:47:14.854Z,3.5
2018-11-10T07:48:14.858Z,4
2018-11-10T07:49:14.956Z,4.4
2018-11-10T07:50:14.875Z,4.7
2018-11-10T07:51:14.928Z,4.8
2018-11-10T07:52:14.861Z,4.9
2018-11-10T07:53:14.840Z,4.9
2018-11-10T07:54:14.882Z,4.7
2018-11-10T07:55:14.837Z,4.5
2018-11-10T07:56:14.927Z,4.6
2018-11-10T07:57:14.846Z,4.9
2018-11-10T07:58:14.917Z,5.3
2018-11-10T07:59:14.865Z,6.2
2018-11-10T08:00:14.858Z,6.9
2018-11-10T08:01:14.881Z,7.1
2018-11-10T08:02:14.842Z,7.1
2018-11-10T08:03:14.947Z,6.9
2018-11-10T08:04:14.864Z,6.5
2018-11-10T08:05:14.847Z,6.3
2018-11-10T08:06:15.438Z,6.4
2018-11-10T08:07:15.593Z,6.7
2018-11-10T08:08:15.717Z,7
2018-11-10T08:09:15.685Z,7.2
2018-11-10T08:10:15.032Z,7.2
2018-11-10T08:11:15.231Z,6.9
2018-11-10T08:12:15.200Z,6.6
2018-11-10T08:13:18.184Z,6.4
2018-11-10T08:14:15.716Z,6.3
2018-11-10T08:15:15.280Z,6.2
2018-11-10T08:16:15.219Z,6.3
2018-11-10T08:17:15.060Z,6.1
2018-11-10T08:18:15.168Z,6.4
2018-11-10T08:19:15.024Z,6.5
2018-11-10T08:20:15.077Z,6.4
2018-11-10T08:21:15.295Z,6.5
2018-11-10T08:22:16.090Z,6.5
2018-11-10T08:23:15.464Z,6.8
2018-11-10T08:24:19.603Z,6.9
2018-11-10T08:25:16.537Z,7
2018-11-10T08:26:15.081Z,6.5
2018-11-10T08:27:17.170Z,6.4
2018-11-10T08:28:15.253Z,6.4
2018-11-10T08:29:15.210Z,6.3
2018-11-10T08:30:16.946Z,6.6
2018-11-10T08:31:15.575Z,6.8
2018-11-10T08:32:15.822Z,6.8
2018-11-10T08:33:17.272Z,6.7
2018-11-10T08:34:14.835Z,6.6
2018-11-10T08:35:15.013Z,6.8
2018-11-10T08:36:14.916Z,6.8
2018-11-10T08:37:14.854Z,6.7
2018-11-10T08:38:14.853Z,6.7
2018-11-10T08:39:14.877Z,6.7
2018-11-10T08:40:14.860Z,6.5
2018-11-10T08:41:14.893Z,6.5
2018-11-10T08:42:14.931Z,6.8
2018-11-10T08:43:14.824Z,7.2
2018-11-10T08:44:14.848Z,7.1
2018-11-10T08:45:14.900Z,6.6
2018-11-10T08:46:14.838Z,6.3
2018-11-10T08:47:14.862Z,6.4
2018-11-10T08:48:14.908Z,6.5
2018-11-10T08:49:14.899Z,6.8
2018-11-10T08:50:14.865Z,7.6
2018-11-10T08:51:14.864Z,9.2
2018-11-10T08:52:14.830Z,9.8
2018-11-10T08:53:14.911Z,9.9
2018-11-10T08:54:16.472Z,10
2018-11-10T08:55:14.866Z,10.3
2018-11-10T08:56:14.904Z,10.6
2018-11-10T08:57:14.835Z,10.8
2018-11-10T08:58:14.824Z,10.9
2018-11-10T08:59:14.904Z,10.6
2018-11-10T09:00:14.916Z,10.2
2018-11-10T09:01:14.892Z,10
2018-11-10T09:02:14.854Z,9.7
2018-11-10T09:03:14.836Z,9.4
2018-11-10T09:04:14.911Z,9
2018-11-10T09:05:14.879Z,8.4
2018-11-10T09:06:14.836Z,7.7
2018-11-10T09:07:14.831Z,6.9
2018-11-10T09:08:14.902Z,6.3
2018-11-10T09:09:14.841Z,5.7
2018-11-10T09:10:14.832Z,5.4
2018-11-10T09:11:14.904Z,5.3
2018-11-10T09:12:14.839Z,5.2
2018-11-10T09:13:14.843Z,5.5
2018-11-10T09:14:14.845Z,6
2018-11-10T09:15:14.959Z,6.6
2018-11-10T09:16:14.918Z,6.7
2018-11-10T09:17:14.853Z,6.9
2018-11-10T09:18:14.905Z,6.7
2018-11-10T09:19:14.827Z,6.6
2018-11-10T09:20:14.848Z,6.3
2018-11-10T09:21:14.887Z,6.3
2018-11-10T09:22:14.822Z,6.2
2018-11-10T09:23:14.833Z,6.2
2018-11-10T09:24:16.941Z,6.1
2018-11-10T09:25:14.824Z,6.1
2018-11-10T09:26:14.842Z,5.7
2018-11-10T09:27:14.818Z,5.2
2018-11-10T09:28:14.828Z,4.7
2018-11-10T09:29:14.903Z,4.2
2018-11-10T09:30:14.986Z,3.8
2018-11-10T09:31:14.809Z,3.5
2018-11-10T09:32:14.819Z,3.1
2018-11-10T09:33:14.825Z,2.9
2018-11-10T09:34:14.888Z,2.9
2018-11-10T09:35:14.848Z,2.9
2018-11-10T09:36:14.826Z,3.3
2018-11-10T09:37:14.886Z,3.7
2018-11-10T09:38:14.899Z,4.1
2018-11-10T09:39:14.909Z,4.2
2018-11-10T09:40:14.876Z,4
2018-11-10T09:41:14.836Z,3.6
2018-11-10T09:42:14.977Z,3.3
2018-11-10T09:43:14.828Z,3
2018-11-10T09:44:14.882Z,2.7
2018-11-10T09:45:14.895Z,2.4
2018-11-10T09:46:14.830Z,2.2
2018-11-10T09:47:14.892Z,2
2018-11-10T09:48:14.828Z,1.8
2018-11-10T09:49:14.839Z,1.6
2018-11-10T09:50:14.847Z,1.5
2018-11-10T09:51:14.826Z,1.3
2018-11-10T09:52:14.889Z,1.2
2018-11-10T09:53:14.905Z,1.1
2018-11-10T09:54:14.922Z,1
2018-11-10T09:55:14.802Z,0.9
2018-11-10T09:56:14.838Z,0.8
2018-11-10T09:57:14.834Z,0.8
2018-11-10T09:58:14.861Z,0.7
2018-11-10T09:59:14.821Z,0.7
2018-11-10T10:00:14.816Z,0.6
2018-11-10T10:01:14.894Z,0.5
2018-11-10T10:02:15.181Z,0.5
2018-11-10T10:03:14.897Z,0.4
2018-11-10T10:04:14.803Z,0.4
2018-11-10T10:05:14.799Z,0.4
2018-11-10T10:06:14.877Z,0.6
2018-11-10T10:07:14.897Z,0.8
2018-11-10T10:08:14.807Z,0.9
2018-11-10T10:09:14.805Z,0.8
2018-11-10T10:10:14.820Z,0.8
2018-11-10T10:11:14.914Z,0.7
2018-11-10T10:12:14.824Z,0.7
2018-11-10T10:13:14.831Z,0.6
2018-11-10T10:14:14.820Z,0.5
2018-11-10T10:15:14.795Z,0.5
2018-11-10T10:16:14.951Z,0.4
2018-11-10T10:17:14.828Z,0.4
2018-11-10T10:18:14.831Z,0.4
2018-11-10T10:19:15.016Z,0.3
2018-11-10T10:20:14.862Z,0.3
2018-11-10T10:21:14.817Z,0.4
2018-11-10T10:22:14.841Z,0.5
2018-11-10T10:23:14.812Z,0.6
2018-11-10T10:24:14.866Z,0.7
2018-11-10T10:25:14.820Z,0.6
2018-11-10T10:26:14.835Z,0.8
2018-11-10T10:27:14.828Z,0.8
2018-11-10T10:28:14.881Z,0.8
2018-11-10T10:29:14.891Z,0.7
2018-11-10T10:30:14.823Z,0.6
2018-11-10T10:31:14.825Z,0.6
2018-11-10T10:32:14.877Z,0.7
2018-11-10T10:33:14.841Z,0.8
2018-11-10T10:34:14.843Z,0.7
2018-11-10T10:35:16.391Z,1.3
2018-11-10T10:36:14.875Z,1.7
2018-11-10T10:37:14.824Z,1.7
2018-11-10T10:38:14.798Z,1.5
2018-11-10T10:39:14.809Z,1.4
2018-11-10T10:40:14.888Z,1.3
2018-11-10T10:41:14.834Z,1.4
2018-11-10T10:42:15.223Z,1.4
2018-11-10T10:43:15.120Z,1.5
2018-11-10T10:44:14.797Z,1.4
2018-11-10T10:45:14.806Z,1.3
2018-11-10T10:46:15.090Z,1.2
2018-11-10T10:47:14.815Z,1.2
2018-11-10T10:48:14.900Z,1.1
2018-11-10T10:49:14.895Z,1.1
2018-11-10T10:50:14.817Z,1.4
2018-11-10T10:51:14.831Z,1.6
2018-11-10T10:52:14.837Z,1.6
2018-11-10T10:53:14.871Z,1.5
2018-11-10T10:54:14.801Z,1.4
2018-11-10T10:55:14.828Z,1.4
2018-11-10T10:56:14.869Z,1.5
2018-11-10T10:57:14.837Z,1.4
2018-11-10T10:58:14.914Z,1.4
2018-11-10T10:59:14.806Z,1.3
2018-11-10T11:00:14.800Z,1.2
2018-11-10T11:01:14.878Z,1.3
2018-11-10T11:02:14.801Z,1.2
2018-11-10T11:03:18.068Z,1.4
2018-11-10T11:04:17.357Z,1.3
2018-11-10T11:05:18.538Z,1.5
2018-11-10T11:06:16.182Z,1.7
2018-11-10T11:07:14.863Z,1.8
2018-11-10T11:08:14.869Z,1.8
2018-11-10T11:09:14.807Z,1.9
2018-11-10T11:10:14.842Z,2
2018-11-10T11:11:14.827Z,2.3
2018-11-10T11:12:14.813Z,3
2018-11-10T11:13:14.895Z,3.4
2018-11-10T11:14:14.806Z,3.2
2018-11-10T11:15:14.887Z,3.1
2018-11-10T11:16:14.853Z,2.9
2018-11-10T11:17:14.826Z,3.1
2018-11-10T11:18:14.819Z,3.2
2018-11-10T11:19:14.835Z,2.9
2018-11-10T11:20:14.858Z,2.7
2018-11-10T11:21:14.879Z,2.6
2018-11-10T11:22:14.841Z,2.4
2018-11-10T11:23:14.808Z,2.5
2018-11-10T11:24:14.877Z,2.6
2018-11-10T11:25:14.812Z,2.4
2018-11-10T11:26:14.873Z,2.3
2018-11-10T11:27:14.793Z,2.6
2018-11-10T11:28:14.825Z,2.5
2018-11-10T11:29:14.890Z,2.4
2018-11-10T11:30:14.800Z,2.4
2018-11-10T11:31:14.863Z,2.4
2018-11-10T11:32:15.010Z,2.3
2018-11-10T11:33:14.793Z,2.4
2018-11-10T11:34:14.821Z,2.3
2018-11-10T11:35:14.949Z,2.1
2018-11-10T11:36:14.843Z,1.9
2018-11-10T11:37:14.819Z,1.7
2018-11-10T11:38:14.806Z,1.6
2018-11-10T11:39:14.860Z,1.4
2018-11-10T11:40:14.795Z,1.3
2018-11-10T11:41:14.969Z,1.2
2018-11-10T11:42:14.825Z,1.1
2018-11-10T11:43:14.808Z,1.1
2018-11-10T11:44:14.890Z,1
2018-11-10T11:45:14.859Z,0.9
2018-11-10T11:46:14.815Z,0.8
2018-11-10T11:47:14.812Z,0.7
2018-11-10T11:48:14.844Z,0.6
2018-11-10T11:49:14.821Z,0.6
2018-11-10T11:50:14.865Z,0.5
2018-11-10T11:51:17.788Z,0.5
2018-11-10T11:52:14.799Z,0.5
2018-11-10T11:53:14.825Z,0.5
2018-11-10T11:54:14.797Z,0.4
2018-11-10T11:55:14.847Z,0.4
2018-11-10T11:56:14.814Z,0.3
2018-11-10T11:57:14.816Z,0.3
2018-11-10T11:58:14.934Z,0.3
2018-11-10T11:59:14.821Z,0.3
2018-11-10T12:00:14.804Z,0.3
2018-11-10T12:01:14.804Z,0.4
2018-11-10T12:02:20.552Z,0.5
2018-11-10T12:03:14.803Z,0.4
2018-11-10T12:04:14.811Z,0.4
2018-11-10T12:05:14.801Z,0.4
2018-11-10T12:06:14.818Z,0.3
2018-11-10T12:07:14.859Z,0.3
2018-11-10T12:08:14.837Z,0.3
2018-11-10T12:09:14.802Z,0.3
2018-11-10T12:10:14.798Z,0.5
2018-11-10T12:11:14.808Z,0.4
2018-11-10T12:12:14.861Z,0.4
2018-11-10T12:13:18.452Z,0.4
2018-11-10T12:14:14.820Z,0.6
2018-11-10T12:15:14.861Z,0.5
2018-11-10T12:16:27.181Z,0.5
2018-11-10T12:17:14.820Z,0.5
2018-11-10T12:18:14.855Z,0.4
2018-11-10T12:19:14.812Z,0.4
2018-11-10T12:20:14.790Z,0.3
2018-11-10T12:21:14.803Z,0.3
2018-11-10T12:22:16.161Z,0.3
2018-11-10T12:23:14.869Z,0.3
2018-11-10T12:24:18.444Z,0.2
2018-11-10T12:25:14.802Z,0.2
2018-11-10T12:26:14.806Z,0.2
2018-11-10T12:27:14.810Z,0.2
2018-11-10T12:28:14.813Z,0.2
2018-11-10T12:29:14.861Z,0.1
2018-11-10T12:30:14.822Z,0.1
2018-11-10T12:31:14.815Z,0.1
2018-11-10T12:32:16.530Z,0.1
2018-11-10T12:33:16.688Z,0.1
2018-11-10T12:34:14.878Z,0.2
2018-11-10T12:35:14.827Z,0.2
2018-11-10T12:36:14.824Z,0.2
2018-11-10T12:37:14.816Z,0.2
2018-11-10T12:38:14.868Z,0.2
2018-11-10T12:39:14.804Z,0.1
2018-11-10T12:40:14.819Z,0.1
2018-11-10T12:41:14.807Z,0.1
2018-11-10T12:42:14.804Z,0.1
2018-11-10T12:43:16.026Z,0.1
2018-11-10T12:44:15.412Z,0.2
2018-11-10T12:45:14.795Z,0.2
2018-11-10T12:46:14.885Z,0.3
2018-11-10T12:47:14.814Z,0.3
2018-11-10T12:48:14.826Z,0.3
2018-11-10T12:49:14.892Z,0.3
2018-11-10T12:50:15.166Z,0.3
2018-11-10T12:51:15.510Z,0.3
2018-11-10T12:52:14.840Z,0.2
2018-11-10T12:53:14.810Z,0.2
2018-11-10T12:54:14.808Z,0.2
2018-11-10T12:55:14.880Z,0.2
2018-11-10T12:56:14.815Z,0.2
2018-11-10T12:57:14.811Z,0.3
2018-11-10T12:58:14.791Z,0.3
2018-11-10T12:59:14.883Z,0.3
2018-11-10T13:00:14.835Z,0.2
2018-11-10T13:01:14.796Z,0.2
2018-11-10T13:02:15.711Z,0.4
2018-11-10T13:03:15.990Z,0.8
2018-11-10T13:04:14.874Z,0.9
2018-11-10T13:05:14.799Z,1.3
2018-11-10T13:06:14.816Z,1.8
2018-11-10T13:07:16.959Z,2.6
2018-11-10T13:08:14.988Z,2.9
2018-11-10T13:09:14.811Z,3.2
2018-11-10T13:10:14.783Z,3.3
2018-11-10T13:11:14.859Z,3.7
2018-11-10T13:12:14.885Z,4
2018-11-10T13:13:14.807Z,4.3
2018-11-10T13:14:14.819Z,4.4
2018-11-10T13:15:14.792Z,4.5
2018-11-10T13:16:14.843Z,4.4
2018-11-10T13:17:14.816Z,4.2
2018-11-10T13:18:14.790Z,4
2018-11-10T13:19:14.792Z,3.9
2018-11-10T13:20:14.793Z,3.8
2018-11-10T13:21:14.858Z,3.6
2018-11-10T13:22:14.801Z,3.3
2018-11-10T13:23:14.797Z,3.1
2018-11-10T13:24:14.816Z,3
2018-11-10T13:25:14.802Z,3.1
2018-11-10T13:26:14.845Z,3
2018-11-10T13:27:14.800Z,2.9
2018-11-10T13:28:14.883Z,2.8
2018-11-10T13:29:14.789Z,2.6
2018-11-10T13:30:14.800Z,2.7
2018-11-10T13:31:14.865Z,2.8
2018-11-10T13:32:14.797Z,2.9
2018-11-10T13:33:14.831Z,2.9
2018-11-10T13:34:14.795Z,3
2018-11-10T13:35:14.771Z,3.3
2018-11-10T13:36:14.839Z,3.8
2018-11-10T13:37:14.790Z,3.7
2018-11-10T13:38:14.872Z,3.5
2018-11-10T13:39:14.836Z,3.3
2018-11-10T13:40:15.476Z,3.9
2018-11-10T13:41:14.864Z,4.3
2018-11-10T13:42:14.776Z,4.7
2018-11-10T13:43:14.894Z,4.7
2018-11-10T13:44:14.805Z,4.9
2018-11-10T13:45:14.795Z,4.8
2018-11-10T13:46:14.819Z,4.9
2018-11-10T13:47:14.785Z,4.9
2018-11-10T13:48:14.785Z,5
2018-11-10T13:49:14.854Z,5.3
2018-11-10T13:50:14.782Z,5.3
2018-11-10T13:51:15.136Z,5.4